createdAt,value
2023-06-05T00:00:50.105Z,41.28
2023-06-05T00:01:51.870Z,41.26
2023-06-05T00:02:53.799Z,41.24
2023-06-05T00:03:55.566Z,41.43
2023-06-05T00:04:57.115Z,41.45
2023-06-05T00:05:58.785Z,41.18
2023-06-05T00:07:00.510Z,41.44
2023-06-05T00:08:02.283Z,41.48
2023-06-05T00:09:03.970Z,41.35
2023-06-05T00:10:05.718Z,41.5
2023-06-05T00:11:07.817Z,41.65
2023-06-05T00:12:09.169Z,41.48
2023-06-05T00:13:10.915Z,41.58
2023-06-05T00:14:12.642Z,41.68
2023-06-05T00:15:14.369Z,42
2023-06-05T00:16:16.134Z,41.74
2023-06-05T00:17:17.875Z,41.85
2023-06-05T00:18:19.600Z,41.71
2023-06-05T00:19:21.542Z,41.63
2023-06-05T00:20:23.025Z,41.79
2023-06-05T00:21:24.955Z,41.8
2023-06-05T00:22:26.502Z,42.08
2023-06-05T00:23:28.285Z,42.08
2023-06-05T00:24:29.962Z,42.14
2023-06-05T00:25:31.760Z,42.12
2023-06-05T00:26:33.417Z,42.47
2023-06-05T00:27:35.185Z,42.46
2023-06-05T00:28:36.883Z,42.19
2023-06-05T00:29:38.646Z,42.45
2023-06-05T00:30:40.376Z,42.41
2023-06-05T00:31:42.173Z,42.39
2023-06-05T00:32:43.900Z,42.48
2023-06-05T00:33:45.580Z,42.55
2023-06-05T00:34:47.334Z,42.48
2023-06-05T00:35:49.028Z,42.16
2023-06-05T00:36:50.841Z,42.41
2023-06-05T00:37:52.503Z,42.38
2023-06-05T00:38:54.259Z,42.52
2023-06-05T00:39:55.963Z,42.6
2023-06-05T00:40:57.682Z,42.69
2023-06-05T00:41:59.435Z,42.7
2023-06-05T00:43:01.173Z,42.93
2023-06-05T00:44:02.981Z,42.82
2023-06-05T00:45:04.674Z,42.57
2023-06-05T00:46:06.455Z,42.87
2023-06-05T00:47:08.099Z,42.81
2023-06-05T00:48:09.832Z,42.79
2023-06-05T00:49:11.558Z,42.72
2023-06-05T00:50:13.309Z,42.73
2023-06-05T00:51:15.030Z,42.67
2023-06-05T00:52:16.750Z,43.27
2023-06-05T00:53:18.524Z,43.14
2023-06-05T00:54:20.279Z,42.94
2023-06-05T00:55:22.000Z,43.06
2023-06-05T00:56:23.715Z,43.39
2023-06-05T00:57:25.440Z,43.62
2023-06-05T00:58:27.169Z,44
2023-06-05T00:59:28.925Z,43.68
2023-06-05T01:00:30.645Z,43.52
2023-06-05T01:01:32.365Z,43.77
2023-06-05T01:02:34.232Z,43.44
2023-06-05T01:03:35.909Z,43.97
2023-06-05T01:04:37.579Z,44.07
2023-06-05T01:05:39.297Z,44.06
2023-06-05T01:06:41.052Z,44.42
2023-06-05T01:07:42.888Z,44.7
2023-06-05T01:08:44.374Z,45.18
2023-06-05T01:09:46.094Z,45.43
2023-06-05T01:10:47.875Z,45.09
2023-06-05T01:11:49.565Z,45.34
2023-06-05T01:12:51.296Z,45.59
2023-06-05T01:13:53.049Z,46
2023-06-05T01:14:54.755Z,46.44
2023-06-05T01:15:56.505Z,46.24
2023-06-05T01:16:58.331Z,46.74
2023-06-05T01:18:00.272Z,46.8
2023-06-05T01:19:01.720Z,47.37
2023-06-05T01:20:03.419Z,47.33
2023-06-05T01:21:05.165Z,47.44
2023-06-05T01:22:06.901Z,47.98
2023-06-05T01:23:08.643Z,47.41
2023-06-05T01:24:10.376Z,48.21
2023-06-05T01:25:12.188Z,48.25
2023-06-05T01:26:13.842Z,47.79
2023-06-05T01:27:15.576Z,48.67
2023-06-05T01:28:17.313Z,47.91
2023-06-05T01:29:19.039Z,48.3
2023-06-05T01:30:20.761Z,48.08
2023-06-05T01:31:22.634Z,49.17
2023-06-05T01:32:24.247Z,48.78
2023-06-05T01:33:25.990Z,48.62
2023-06-05T01:34:27.745Z,48.54
2023-06-05T01:35:29.479Z,48.72
2023-06-05T01:36:31.168Z,49.19
2023-06-05T01:37:32.908Z,49.25
2023-06-05T01:38:34.652Z,48.84
2023-06-05T01:39:36.389Z,49.29
2023-06-05T01:40:38.108Z,49.9
2023-06-05T01:41:39.830Z,49.6
2023-06-05T01:42:41.620Z,49.58
2023-06-05T01:43:43.337Z,49.6
2023-06-05T01:44:45.049Z,50.14
2023-06-05T01:45:46.780Z,49.91
2023-06-05T01:46:48.537Z,49.6
2023-06-05T01:47:50.279Z,49.59
2023-06-05T01:48:51.988Z,50.12
2023-06-05T01:49:53.704Z,49.75
2023-06-05T01:50:55.435Z,49.9
2023-06-05T01:51:57.173Z,50.28
2023-06-05T01:52:58.916Z,50.45
2023-06-05T01:54:00.672Z,50.75
2023-06-05T01:55:02.368Z,50.39
2023-06-05T01:56:04.121Z,50.62
2023-06-05T01:57:05.862Z,51.32
2023-06-05T01:58:07.588Z,50.75
2023-06-05T01:59:09.338Z,50.88
2023-06-05T02:00:11.044Z,50.77
2023-06-05T02:01:12.780Z,50.77
2023-06-05T02:02:14.514Z,50.86
2023-06-05T02:03:16.390Z,50.71
2023-06-05T02:04:18.059Z,51.26
2023-06-05T02:05:19.713Z,51
2023-06-05T02:06:21.434Z,51
2023-06-05T02:07:23.185Z,51.37
2023-06-05T02:08:24.907Z,51.92
2023-06-05T02:09:26.650Z,52.97
2023-06-05T02:10:28.403Z,51.9
2023-06-05T02:11:30.126Z,51.67
2023-06-05T02:12:31.856Z,51.52
2023-06-05T02:13:33.587Z,51.57
2023-06-05T02:14:35.315Z,51.87
2023-06-05T02:15:37.044Z,52.13
2023-06-05T02:16:38.795Z,52.32
2023-06-05T02:17:40.527Z,52.37
2023-06-05T02:18:42.604Z,52.36
2023-06-05T02:19:43.979Z,52.55
2023-06-05T02:20:45.731Z,52.6
2023-06-05T02:21:47.437Z,52.42
2023-06-05T02:22:49.214Z,52.72
2023-06-05T02:23:51.008Z,53.25
2023-06-05T02:24:52.646Z,53.25
2023-06-05T02:25:54.380Z,53.51
2023-06-05T02:26:56.124Z,53.28
2023-06-05T02:27:57.905Z,53.41
2023-06-05T02:28:59.585Z,53.48
2023-06-05T02:30:01.309Z,53.73
2023-06-05T02:31:03.057Z,54.04
2023-06-05T02:32:04.855Z,54.09
2023-06-05T02:33:06.586Z,53.98
2023-06-05T02:34:08.254Z,54.19
2023-06-05T02:35:09.996Z,54.69
2023-06-05T02:36:11.761Z,55.41
2023-06-05T02:37:13.480Z,55.1
2023-06-05T02:38:15.181Z,54.68
2023-06-05T02:39:16.924Z,55.44
2023-06-05T02:40:18.746Z,55.42
2023-06-05T02:41:20.388Z,55.21
2023-06-05T02:42:22.126Z,55.25
2023-06-05T02:43:23.886Z,55.86
2023-06-05T02:44:25.605Z,56.25
2023-06-05T02:45:27.326Z,56.49
2023-06-05T02:46:29.123Z,55.75
2023-06-05T02:47:30.826Z,55.84
2023-06-05T02:48:32.533Z,55.56
2023-06-05T02:49:34.386Z,55.65
2023-06-05T02:50:36.010Z,55.73
2023-06-05T02:51:37.742Z,55.9
2023-06-05T02:52:39.538Z,55.75
2023-06-05T02:53:41.242Z,55.79
2023-06-05T02:54:42.932Z,56.6
2023-06-05T02:55:44.667Z,56.03
2023-06-05T02:56:46.403Z,56.55
2023-06-05T02:57:48.114Z,56.15
2023-06-05T02:58:49.869Z,55.72
2023-06-05T02:59:51.654Z,56.06
2023-06-05T03:00:53.360Z,56.45
2023-06-05T03:01:55.135Z,56.25
2023-06-05T03:02:57.259Z,56.14
2023-06-05T03:03:58.662Z,56.61
2023-06-05T03:05:00.346Z,56.09
2023-06-05T03:06:02.002Z,56.11
2023-06-05T03:07:03.807Z,56.21
2023-06-05T03:08:05.471Z,56.01
2023-06-05T03:09:07.200Z,56.17
2023-06-05T03:10:08.918Z,56.2
2023-06-05T03:11:10.966Z,56.05
2023-06-05T03:12:12.418Z,56.29
2023-06-05T03:13:14.141Z,56.69
2023-06-05T03:14:15.868Z,56.11
2023-06-05T03:15:17.573Z,56.03
2023-06-05T03:16:19.382Z,56.06
2023-06-05T03:17:21.112Z,56.03
2023-06-05T03:18:22.799Z,56.06
2023-06-05T03:19:24.533Z,55.42
2023-06-05T03:20:26.510Z,55.36
2023-06-05T03:21:28.004Z,55.55
2023-06-05T03:22:29.761Z,55.75
2023-06-05T03:23:31.516Z,55.55
2023-06-05T03:24:33.223Z,55.62
2023-06-05T03:25:34.929Z,55.37
2023-06-05T03:26:36.675Z,55.92
2023-06-05T03:27:38.385Z,56.23
2023-06-05T03:28:40.111Z,55.6
2023-06-05T03:29:41.887Z,55.54
2023-06-05T03:30:43.594Z,55.83
2023-06-05T03:31:45.324Z,55.51
2023-06-05T03:32:47.078Z,55.71
2023-06-05T03:33:48.863Z,55.47
2023-06-05T03:34:50.537Z,55.68
2023-06-05T03:35:52.247Z,55.64
2023-06-05T03:36:54.001Z,55.57
2023-06-05T03:37:55.798Z,55.43
2023-06-05T03:38:57.521Z,55.51
2023-06-05T03:39:59.264Z,55.44
2023-06-05T03:41:01.078Z,55.83
2023-06-05T03:42:02.654Z,56.01
2023-06-05T03:43:04.402Z,55.73
2023-06-05T03:44:06.183Z,55.55
2023-06-05T03:45:07.913Z,55.75
2023-06-05T03:46:09.628Z,55.26
2023-06-05T03:47:11.283Z,55.87
2023-06-05T03:48:12.448Z,55.72
2023-06-05T03:49:12.899Z,56.07
2023-06-05T03:50:14.545Z,55.63
2023-06-05T03:51:16.304Z,55.96
2023-06-05T03:52:18.038Z,55.93
2023-06-05T03:53:19.763Z,56.23
2023-06-05T03:54:21.489Z,56.27
2023-06-05T03:55:23.220Z,56.27
2023-06-05T03:56:24.942Z,56.54
2023-06-05T03:57:26.675Z,56.34
2023-06-05T03:58:28.402Z,56.32
2023-06-05T04:13:56.731Z,57.38
2023-06-05T04:14:59.534Z,57.17
2023-06-05T04:16:00.228Z,57
2023-06-05T04:17:01.944Z,57.37
2023-06-05T04:18:03.689Z,57.14
2023-06-05T04:19:05.353Z,57.24
2023-06-05T04:20:07.080Z,56.86
2023-06-05T04:21:09.025Z,57.46
2023-06-05T04:22:10.528Z,57.5
2023-06-05T04:23:22.554Z,57.29
2023-06-05T04:24:24.291Z,57.58
2023-06-05T04:25:26.009Z,57.86
2023-06-05T04:26:27.710Z,58.09
2023-06-05T04:27:29.540Z,58.02
2023-06-05T04:28:31.202Z,57.69
2023-06-05T04:29:32.956Z,57.89
2023-06-05T04:30:34.687Z,57.79
2023-06-05T04:31:36.398Z,58.26
2023-06-05T04:32:38.161Z,57.49
2023-06-05T04:33:39.793Z,57.37
2023-06-05T04:34:41.547Z,57.76
2023-06-05T04:35:43.235Z,57.37
2023-06-05T04:36:44.968Z,57.49
2023-06-05T04:37:46.767Z,57.61
2023-06-05T04:38:48.411Z,57.72
2023-06-05T04:39:50.182Z,57.8
2023-06-05T04:40:51.927Z,57.47
2023-06-05T04:42:06.774Z,57.54
2023-06-05T04:42:55.481Z,57.56
2023-06-05T04:43:57.093Z,58.46
2023-06-05T04:44:58.855Z,58.09
2023-06-05T04:46:00.562Z,57.92
2023-06-05T04:47:02.270Z,58.09
2023-06-05T04:48:04.082Z,58.95
2023-06-05T04:49:05.737Z,58.59
2023-06-05T04:50:07.531Z,58.14
2023-06-05T04:51:09.473Z,58.17
2023-06-05T04:52:10.958Z,58.33
2023-06-05T04:53:12.741Z,58.3
2023-06-05T04:54:14.432Z,57.98
2023-06-05T04:55:17.014Z,58.43
2023-06-05T04:56:17.913Z,59.22
2023-06-05T04:57:19.645Z,58.91
2023-06-05T04:58:21.356Z,58.99
2023-06-05T04:59:23.087Z,58.3
2023-06-05T05:00:51.714Z,58.39
2023-06-05T05:02:17.297Z,58.37
2023-06-05T05:03:26.931Z,59.09
2023-06-05T05:04:31.646Z,58.3
2023-06-05T05:05:32.875Z,58.8
2023-06-05T05:06:35.110Z,60.06
2023-06-05T05:07:36.909Z,58.62
2023-06-05T05:08:38.633Z,59.38
2023-06-05T05:09:40.357Z,60.06
2023-06-05T05:10:42.042Z,60.19
2023-06-05T05:11:43.784Z,60.09
2023-06-05T05:12:45.511Z,60.23
2023-06-05T05:13:47.259Z,60.11
2023-06-05T05:14:48.989Z,59.93
2023-06-05T05:15:50.777Z,59.71
2023-06-05T05:16:52.455Z,59.4
2023-06-05T05:17:54.221Z,59.26
2023-06-05T05:18:55.909Z,59.29
2023-06-05T05:19:57.663Z,59.94
2023-06-05T05:20:59.389Z,58.9
2023-06-05T05:22:01.125Z,59.61
2023-06-05T05:23:02.870Z,59.42
2023-06-05T05:24:04.714Z,59.2
2023-06-05T05:25:06.324Z,58.63
2023-06-05T05:26:08.072Z,58.37
2023-06-05T05:27:09.775Z,58.28
2023-06-05T05:28:11.527Z,58.72
2023-06-05T05:29:13.287Z,58.93
2023-06-05T05:30:14.987Z,59.16
2023-06-05T05:31:30.063Z,59.63
2023-06-05T05:32:31.594Z,59.2
2023-06-05T05:33:33.426Z,60.26
2023-06-05T05:34:35.054Z,59.58
2023-06-05T05:35:36.703Z,59.58
2023-06-05T05:36:38.423Z,56.6
2023-06-05T05:37:40.150Z,57.45
2023-06-05T05:38:41.884Z,58.09
2023-06-05T05:39:43.630Z,58.36
2023-06-05T05:40:45.363Z,57.46
2023-06-05T05:41:47.095Z,56.16
2023-06-05T05:42:48.825Z,55.89
2023-06-05T05:43:50.570Z,55.32
2023-06-05T05:44:52.285Z,54.29
2023-06-05T05:45:54.096Z,53.37
2023-06-05T05:46:55.796Z,54.56
2023-06-05T05:47:57.553Z,53.93
2023-06-05T05:48:59.227Z,53.01
2023-06-05T05:50:00.960Z,53.62
2023-06-05T05:51:02.723Z,53.85
2023-06-05T05:52:04.421Z,53.6
2023-06-05T05:53:41.737Z,51.79
2023-06-05T05:54:43.448Z,52.18
2023-06-05T05:55:45.191Z,51.71
2023-06-05T05:56:46.935Z,51.7
2023-06-05T05:57:48.658Z,50.2
2023-06-05T05:58:50.384Z,48.94
2023-06-05T05:59:52.114Z,48.5
2023-06-05T06:00:53.858Z,49.96
2023-06-05T06:01:55.682Z,50.97
2023-06-05T06:02:57.398Z,50.29
2023-06-05T06:03:59.129Z,50.19
2023-06-05T06:05:00.778Z,50.36
2023-06-05T06:06:02.533Z,48.14
2023-06-05T06:07:04.528Z,49.84
2023-06-05T06:08:06.002Z,50.69
2023-06-05T06:09:07.719Z,48.4
2023-06-05T06:10:09.450Z,48.27
2023-06-05T06:11:11.640Z,48.53
2023-06-05T06:12:12.910Z,47.89
2023-06-05T06:13:14.689Z,48.78
2023-06-05T06:14:16.478Z,48.59
2023-06-05T06:15:18.133Z,47.58
2023-06-05T06:16:19.949Z,48.39
2023-06-05T06:17:21.590Z,47.03
2023-06-05T06:18:23.314Z,47.82
2023-06-05T06:19:25.268Z,47.12
2023-06-05T06:20:26.803Z,47.15
2023-06-05T06:21:28.536Z,46.36
2023-06-05T06:22:30.251Z,46.32
2023-06-05T06:23:32.018Z,47.03
2023-06-05T06:24:33.805Z,45.12
2023-06-05T06:25:35.459Z,45.62
2023-06-05T06:26:37.188Z,46.87
2023-06-05T06:27:38.926Z,48.03
2023-06-05T06:28:40.662Z,45.37
2023-06-05T06:29:42.406Z,46.55
2023-06-05T06:30:44.171Z,45.57
2023-06-05T06:31:45.912Z,43.7
2023-06-05T06:32:47.672Z,44.07
2023-06-05T06:33:49.317Z,44.26
2023-06-05T06:34:51.056Z,44.83
2023-06-05T06:35:52.781Z,45.59
2023-06-05T06:36:54.528Z,46.03
2023-06-05T06:37:56.251Z,45.45
2023-06-05T06:38:57.980Z,45.3
2023-06-05T06:39:59.772Z,45.25
2023-06-05T06:41:01.528Z,40.91
2023-06-05T06:42:03.280Z,42.89
2023-06-05T06:43:04.905Z,41.78
2023-06-05T06:44:06.691Z,42.95
2023-06-05T06:45:08.498Z,42.5
2023-06-05T06:46:10.122Z,43.06
2023-06-05T06:47:11.856Z,42.96
2023-06-05T06:48:13.727Z,44.02
2023-06-05T06:49:15.375Z,43.12
2023-06-05T06:50:17.070Z,41.85
2023-06-05T06:51:18.808Z,42.07
2023-06-05T06:52:20.976Z,39.91
2023-06-05T06:53:22.245Z,40.11
2023-06-05T06:54:23.991Z,41.83
2023-06-05T06:55:25.720Z,41.08
2023-06-05T06:56:27.472Z,40.83
2023-06-05T06:57:29.188Z,42.1
2023-06-05T06:58:30.922Z,41.05
2023-06-05T06:59:32.715Z,41.99
2023-06-05T07:00:34.559Z,41.92
2023-06-05T07:01:36.183Z,43.06
2023-06-05T07:02:37.966Z,41.55
2023-06-05T07:03:39.582Z,40.26
2023-06-05T07:04:41.312Z,40.8
2023-06-05T07:05:43.072Z,40.03
2023-06-05T07:06:44.799Z,38.69
2023-06-05T07:07:46.522Z,39.02
2023-06-05T07:08:48.268Z,39.1
2023-06-05T07:09:50.081Z,39.34
2023-06-05T07:10:51.789Z,39.04
2023-06-05T07:11:53.467Z,41.18
2023-06-05T07:12:55.314Z,38.81
2023-06-05T07:13:56.955Z,40.37
2023-06-05T07:14:58.671Z,40.4
2023-06-05T07:16:00.497Z,40.89
2023-06-05T07:17:03.916Z,40.08
2023-06-05T07:18:03.955Z,40.15
2023-06-05T07:19:05.599Z,41.3
2023-06-05T07:20:07.382Z,42.73
2023-06-05T07:21:09.377Z,41.07
2023-06-05T07:22:10.808Z,41.73
2023-06-05T07:23:12.583Z,42.71
2023-06-05T07:24:14.302Z,42.73
2023-06-05T07:25:15.990Z,42.77
2023-06-05T07:26:17.722Z,39.23
2023-06-05T07:27:19.456Z,39.58
2023-06-05T07:28:21.218Z,38.77
2023-06-05T07:29:22.918Z,38.87
2023-06-05T07:30:24.659Z,39.22
2023-06-05T07:31:26.436Z,39.1
2023-06-05T07:32:28.154Z,38.47
2023-06-05T07:33:31.227Z,39.51
2023-06-05T07:34:31.600Z,39.55
2023-06-05T07:35:35.614Z,38.19
2023-06-05T07:36:35.058Z,38.94
2023-06-05T07:37:36.821Z,38.08
2023-06-05T07:38:38.527Z,39.92
2023-06-05T07:39:40.290Z,39.52
2023-06-05T07:40:42.015Z,39.57
2023-06-05T07:41:43.749Z,38.39
2023-06-05T07:42:45.721Z,39.27
2023-06-05T07:43:47.207Z,38.26
2023-06-05T07:44:48.936Z,39.41
2023-06-05T07:45:50.699Z,38.86
2023-06-05T07:46:52.445Z,39.69
2023-06-05T07:47:54.145Z,38.96
2023-06-05T07:48:55.923Z,39.99
2023-06-05T07:49:57.586Z,36.52
2023-06-05T07:50:59.342Z,37.45
2023-06-05T07:52:01.098Z,37.16
2023-06-05T07:53:02.792Z,36.46
2023-06-05T07:54:04.534Z,37.37
2023-06-05T07:55:06.282Z,37.3
2023-06-05T07:56:08.003Z,37.73
2023-06-05T07:57:09.744Z,38.31
2023-06-05T07:58:11.681Z,38.01
2023-06-05T07:59:13.225Z,37.68
2023-06-05T08:00:14.924Z,36.69
2023-06-05T08:01:16.844Z,37.78
2023-06-05T08:02:18.419Z,38.67
2023-06-05T08:03:20.355Z,38.19
2023-06-05T08:04:21.936Z,36.9
2023-06-05T08:05:23.678Z,37.22
2023-06-05T08:06:25.356Z,38.07
2023-06-05T08:07:27.120Z,38.46
2023-06-05T08:08:28.796Z,39.33
2023-06-05T08:09:30.538Z,38.64
2023-06-05T08:10:33.194Z,39.35
2023-06-05T08:11:34.044Z,38.39
2023-06-05T08:12:35.766Z,36.06
2023-06-05T08:13:37.471Z,37.16
2023-06-05T08:14:39.207Z,36.47
2023-06-05T08:15:40.942Z,37.25
2023-06-05T08:16:42.707Z,36.6
2023-06-05T08:17:44.427Z,38.3
2023-06-05T08:18:46.111Z,37.07
2023-06-05T08:19:47.879Z,37.06
2023-06-05T08:20:49.619Z,38.11
2023-06-05T08:21:51.344Z,39.4
2023-06-05T08:22:53.060Z,39.31
2023-06-05T08:23:54.932Z,38.56
2023-06-05T08:24:56.537Z,37.93
2023-06-05T08:25:58.259Z,35.81
2023-06-05T08:27:00.031Z,36.6
2023-06-05T08:28:01.728Z,36.54
2023-06-05T08:29:03.469Z,36.75
2023-06-05T08:30:05.231Z,36.21
2023-06-05T08:31:07.109Z,36.79
2023-06-05T08:32:08.748Z,38.06
2023-06-05T08:33:10.423Z,38.66
2023-06-05T08:34:12.126Z,37.58
2023-06-05T08:35:13.844Z,38.19
2023-06-05T08:36:15.615Z,37.31
2023-06-05T08:37:17.353Z,37.99
2023-06-05T08:38:19.067Z,37.09
2023-06-05T08:39:20.805Z,37.58
2023-06-05T08:40:22.710Z,38.88
2023-06-05T08:41:24.269Z,37.51
2023-06-05T08:42:25.994Z,38.2
2023-06-05T08:43:27.768Z,37.48
2023-06-05T08:44:29.484Z,37.39
2023-06-05T08:45:31.234Z,37.26
2023-06-05T08:46:32.989Z,37.64
2023-06-05T08:47:34.692Z,36.77
2023-06-05T08:48:36.385Z,35.4
2023-06-05T08:49:38.128Z,36.24
2023-06-05T08:50:39.871Z,37.29
2023-06-05T08:51:41.600Z,37.17
2023-06-05T08:52:43.336Z,37.73
2023-06-05T08:53:45.070Z,36.74
2023-06-05T08:54:46.785Z,35.78
2023-06-05T08:55:48.760Z,37
2023-06-05T08:57:00.528Z,36.64
2023-06-05T08:58:02.287Z,36.46
2023-06-05T08:59:04.095Z,35.75
2023-06-05T09:00:05.765Z,36.53
2023-06-05T09:01:07.859Z,37.23
2023-06-05T09:02:09.260Z,36.5
2023-06-05T09:03:11.015Z,36.9
2023-06-05T09:05:14.454Z,37.47
2023-06-05T09:06:16.322Z,38.33
2023-06-05T09:07:18.354Z,38.48
2023-06-05T09:08:20.155Z,38.14
2023-06-05T09:09:21.360Z,37.62
2023-06-05T09:10:23.088Z,36.76
2023-06-05T09:11:25.120Z,37.35
2023-06-05T09:12:26.560Z,37.35
2023-06-05T09:13:28.306Z,35.98
2023-06-05T09:14:30.037Z,36.32
2023-06-05T09:15:31.812Z,37.55
2023-06-05T09:16:33.501Z,37.22
2023-06-05T09:17:35.780Z,37.22
2023-06-05T09:18:36.984Z,36.83
2023-06-05T09:19:38.721Z,36.92
2023-06-05T09:20:40.496Z,37.66
2023-06-05T09:21:43.997Z,36.08
2023-06-05T09:22:44.268Z,37.36
2023-06-05T09:23:45.962Z,37.65
2023-06-05T09:24:47.390Z,37.36
2023-06-05T09:25:49.123Z,37.26
2023-06-05T09:26:50.934Z,37.28
2023-06-05T09:27:52.576Z,37.93
2023-06-05T09:28:54.308Z,38.71
2023-06-05T09:29:56.033Z,37.78
2023-06-05T09:30:57.829Z,39.11
2023-06-05T09:31:59.625Z,37.37
2023-06-05T09:33:01.281Z,38.37
2023-06-05T09:34:02.966Z,38.53
2023-06-05T09:35:05.122Z,37.99
2023-06-05T09:36:06.841Z,38.26
2023-06-05T09:37:08.195Z,38.09
2023-06-05T09:38:09.900Z,36.63
2023-06-05T09:39:11.634Z,36.81
2023-06-05T09:40:13.524Z,37.43
2023-06-05T09:41:15.183Z,36.88
2023-06-05T09:42:16.917Z,38.39
2023-06-05T09:43:18.651Z,38.72
2023-06-05T09:44:20.317Z,38.3
2023-06-05T09:45:22.024Z,38.39
2023-06-05T09:46:23.870Z,39.2
2023-06-05T09:47:25.596Z,36.77
2023-06-05T09:48:27.257Z,36.52
2023-06-05T09:49:29.159Z,36.48
2023-06-05T09:50:30.934Z,36.75
2023-06-05T09:51:32.608Z,38.5
2023-06-05T09:52:34.285Z,38.5
2023-06-05T09:53:36.045Z,38.05
2023-06-05T09:54:37.638Z,38.14
2023-06-05T09:55:39.365Z,38.08
2023-06-05T09:56:41.082Z,37.22
2023-06-05T09:57:42.888Z,38.05
2023-06-05T09:58:44.698Z,37.99
2023-06-05T09:59:46.431Z,38.25
2023-06-05T10:00:48.085Z,36.87
2023-06-05T10:01:49.776Z,36.33
2023-06-05T10:02:51.583Z,37.98
2023-06-05T10:03:53.510Z,35.84
2023-06-05T10:04:54.990Z,34.55
2023-06-05T10:06:00.906Z,36.32
2023-06-05T10:06:58.427Z,35.96
2023-06-05T10:08:00.193Z,37.34
2023-06-05T10:09:01.907Z,36.68
2023-06-05T10:10:03.811Z,36.8
2023-06-05T10:11:05.372Z,37.79
2023-06-05T10:12:07.235Z,35.92
2023-06-05T10:13:08.824Z,36.27
2023-06-05T10:14:10.667Z,36.63
2023-06-05T10:15:13.862Z,35.28
2023-06-05T10:16:18.399Z,36.75
2023-06-05T10:17:15.798Z,36.26
2023-06-05T10:18:17.537Z,37.26
2023-06-05T10:19:19.302Z,37.5
2023-06-05T10:20:20.986Z,36.69
2023-06-05T10:21:22.700Z,36.33
2023-06-05T10:22:24.581Z,36.45
2023-06-05T10:23:26.457Z,36.71
2023-06-05T10:24:27.889Z,37.5
2023-06-05T10:25:31.368Z,37.71
2023-06-05T10:26:31.548Z,36.78
2023-06-05T10:27:33.105Z,36.6
2023-06-05T10:28:34.840Z,35.33
2023-06-05T10:29:36.716Z,34.05
2023-06-05T10:30:38.370Z,34.52
2023-06-05T10:31:40.104Z,34.01
2023-06-05T10:32:41.816Z,33.71
2023-06-05T10:33:43.614Z,33.69
2023-06-05T10:34:45.226Z,32.75
2023-06-05T10:35:46.982Z,33.75
2023-06-05T10:36:48.700Z,35.14
2023-06-05T10:37:50.592Z,35.61
2023-06-05T10:38:52.187Z,36.02
2023-06-05T10:39:54.035Z,35.94
2023-06-05T10:40:55.774Z,35.45
2023-06-05T10:41:57.583Z,33.8
2023-06-05T10:42:59.086Z,33.77
2023-06-05T10:44:00.838Z,34.86
2023-06-05T10:45:02.585Z,33.91
2023-06-05T10:47:06.190Z,35.21
2023-06-05T10:48:07.882Z,33.27
2023-06-05T10:49:09.928Z,33.54
2023-06-05T10:50:11.232Z,34.47
2023-06-05T10:51:12.958Z,33.6
2023-06-05T10:52:14.747Z,32.58
2023-06-05T10:53:16.567Z,32.18
2023-06-05T10:54:18.188Z,33.48
2023-06-05T10:55:20.015Z,34.61
2023-06-05T10:56:21.713Z,34.27
2023-06-05T10:57:23.357Z,34.84
2023-06-05T10:58:25.101Z,32.3
2023-06-05T10:59:26.972Z,33.42
2023-06-05T11:00:28.563Z,33.8
2023-06-05T11:01:30.343Z,32.09
2023-06-05T11:02:32.115Z,33.28
2023-06-05T11:03:33.865Z,33.53
2023-06-05T11:04:35.504Z,33.79
2023-06-05T11:05:37.245Z,34.42
2023-06-05T11:06:39.383Z,32.56
2023-06-05T11:07:40.702Z,32.76
2023-06-05T11:08:42.748Z,32.91
2023-06-05T11:09:44.374Z,32.36
2023-06-05T11:10:46.107Z,32.54
2023-06-05T11:11:47.837Z,33.6
2023-06-05T11:12:49.376Z,33.8
2023-06-05T11:13:51.296Z,33.22
2023-06-05T11:14:52.842Z,32.68
2023-06-05T11:15:54.619Z,33.19
2023-06-05T11:16:56.314Z,33.58
2023-06-05T11:17:58.182Z,33.9
2023-06-05T11:18:59.777Z,33.26
2023-06-05T11:20:01.520Z,31.27
2023-06-05T11:21:03.397Z,32.14
2023-06-05T11:22:05.011Z,32.06
2023-06-05T11:23:06.802Z,31.7
2023-06-05T11:24:08.677Z,32.01
2023-06-05T11:25:10.200Z,31.33
2023-06-05T11:26:12.077Z,32.12
2023-06-05T11:27:13.815Z,31.55
2023-06-05T11:28:15.755Z,30.36
2023-06-05T11:29:17.420Z,29.91
2023-06-05T11:30:28.049Z,30.85
2023-06-05T11:31:20.763Z,30.58
2023-06-05T11:32:22.490Z,31.18
2023-06-05T11:33:24.100Z,30.72
2023-06-05T11:34:25.794Z,30.56
2023-06-05T11:35:27.679Z,30.5
2023-06-05T11:36:29.266Z,28.94
2023-06-05T11:37:31.081Z,30.83
2023-06-05T11:38:32.716Z,28.92
2023-06-05T11:39:34.497Z,30.3
2023-06-05T11:40:36.203Z,30.25
2023-06-05T11:41:37.950Z,28.2
2023-06-05T11:42:39.655Z,28.14
2023-06-05T11:43:41.397Z,28.69
2023-06-05T11:44:43.200Z,28.76
2023-06-05T11:45:45.067Z,30.09
2023-06-05T11:46:46.810Z,30.31
2023-06-05T11:47:48.471Z,29.95
2023-06-05T11:48:50.060Z,30.71
2023-06-05T11:49:51.813Z,30.83
2023-06-05T11:50:53.604Z,30.05
2023-06-05T11:51:55.335Z,28.67
2023-06-05T11:52:56.995Z,29.42
2023-06-05T11:53:58.744Z,30.6
2023-06-05T11:55:00.462Z,30.02
2023-06-05T11:56:02.202Z,29.7
2023-06-05T11:57:03.952Z,29.22
2023-06-05T11:58:05.706Z,30.12
2023-06-05T11:59:07.419Z,30.47
2023-06-05T12:00:09.159Z,29.39
2023-06-05T12:01:10.899Z,28.55
2023-06-05T12:02:12.684Z,29.36
2023-06-05T12:03:14.453Z,28.96
2023-06-05T12:04:17.655Z,28.95
2023-06-05T12:05:17.807Z,29.48
2023-06-05T12:06:19.614Z,30.18
2023-06-05T12:07:21.280Z,28.17
2023-06-05T12:08:23.008Z,28.87
2023-06-05T12:09:24.759Z,29.05
2023-06-05T12:10:26.495Z,28.92
2023-06-05T12:11:28.201Z,29.07
2023-06-05T12:12:29.944Z,29.52
2023-06-05T12:13:31.670Z,29.15
2023-06-05T12:14:33.657Z,29
2023-06-05T12:15:35.243Z,28.1
2023-06-05T12:16:37.065Z,29.95
2023-06-05T12:17:38.813Z,28.62
2023-06-05T12:18:40.360Z,27.95
2023-06-05T12:19:42.076Z,28.27
2023-06-05T12:20:43.806Z,27.29
2023-06-05T12:21:45.578Z,28.88
2023-06-05T12:22:47.282Z,28.4
2023-06-05T12:23:49.089Z,28.45
2023-06-05T12:24:50.847Z,28.9
2023-06-05T12:25:52.484Z,27.39
2023-06-05T12:26:54.213Z,28.01
2023-06-05T12:27:55.946Z,28.89
2023-06-05T12:28:57.739Z,29.85
2023-06-05T12:29:59.599Z,29.46
2023-06-05T12:31:01.164Z,29.05
2023-06-05T12:32:02.939Z,28.54
2023-06-05T12:33:04.645Z,28.8
2023-06-05T12:34:06.616Z,28.97
2023-06-05T12:35:09.570Z,27.42
2023-06-05T12:36:10.190Z,28.06
2023-06-05T12:37:12.272Z,29.77
2023-06-05T12:38:13.450Z,28.63
2023-06-05T12:39:15.038Z,29.55
2023-06-05T12:40:28.328Z,28.61
2023-06-05T12:41:18.637Z,28.28
2023-06-05T12:42:20.239Z,28.7
2023-06-05T12:43:22.046Z,28.14
2023-06-05T12:44:23.690Z,28.19
2023-06-05T12:45:25.820Z,27.46
2023-06-05T12:46:27.270Z,26.7
2023-06-05T12:47:33.193Z,27
2023-06-05T12:48:35.780Z,26.92
2023-06-05T12:49:38.117Z,26.69
2023-06-05T12:50:39.318Z,27.48
2023-06-05T12:51:41.036Z,27.43
2023-06-05T12:52:42.779Z,27.37
2023-06-05T12:53:44.460Z,28.08
2023-06-05T12:54:46.330Z,27.71
2023-06-05T12:55:47.968Z,26.62
2023-06-05T12:56:49.643Z,26.78
2023-06-05T12:57:54.111Z,27.57
2023-06-05T12:58:58.438Z,27.67
2023-06-05T12:59:59.996Z,27.99
2023-06-05T13:01:01.755Z,27.94
2023-06-05T13:02:03.726Z,28.52
2023-06-05T13:03:05.421Z,27.65
2023-06-05T13:04:07.112Z,27.09
2023-06-05T13:05:08.658Z,26.95
2023-06-05T13:06:10.649Z,26.23
2023-06-05T13:07:12.132Z,25.83
2023-06-05T13:08:13.863Z,25.67
2023-06-05T13:09:15.584Z,25.05
2023-06-05T13:10:17.322Z,26.61
2023-06-05T13:11:19.064Z,26.69
2023-06-05T13:12:20.811Z,26.27
2023-06-05T13:13:22.543Z,26.44
2023-06-05T13:14:24.269Z,26.84
2023-06-05T13:15:26.081Z,25.66
2023-06-05T13:16:27.757Z,26.33
2023-06-05T13:17:29.470Z,26.98
2023-06-05T13:18:31.239Z,27.58
2023-06-05T13:19:33.038Z,27.31
2023-06-05T13:20:34.753Z,26.77
2023-06-05T13:21:36.414Z,24.99
2023-06-05T13:22:38.282Z,24.46
2023-06-05T13:23:39.971Z,25.83
2023-06-05T13:24:41.584Z,25.43
2023-06-05T13:25:43.493Z,25.36
2023-06-05T13:26:45.051Z,26.12
2023-06-05T13:27:47.127Z,25.6
2023-06-05T13:28:48.520Z,25.65
2023-06-05T13:29:50.270Z,26.36
2023-06-05T13:30:52.050Z,26.12
2023-06-05T13:31:53.821Z,26.56
2023-06-05T13:32:55.508Z,25.92
2023-06-05T13:33:57.180Z,24.5
2023-06-05T13:34:58.937Z,24.7
2023-06-05T13:36:00.733Z,25.81
2023-06-05T13:37:10.044Z,24.18
2023-06-05T13:38:04.124Z,23.86